createdAt,value
2017-03-17T00:00:06.639Z,0
2017-03-17T00:01:06.775Z,0
2017-03-17T00:02:06.719Z,0
2017-03-17T00:03:06.658Z,0
2017-03-17T00:04:06.590Z,0
2017-03-17T00:05:06.241Z,0
2017-03-17T00:06:05.865Z,0
2017-03-17T00:07:06.407Z,0
2017-03-17T00:08:06.347Z,0
2017-03-17T00:09:06.278Z,0
2017-03-17T00:10:06.218Z,0
2017-03-17T00:11:06.160Z,0
2017-03-17T00:12:06.096Z,0
2017-03-17T00:13:06.029Z,0
2017-03-17T00:14:05.966Z,0
2017-03-17T00:15:05.904Z,0
2017-03-17T00:16:05.841Z,0
2017-03-17T00:17:05.781Z,0
2017-03-17T00:18:05.718Z,0
2017-03-17T00:19:05.653Z,0
2017-03-17T00:20:05.595Z,0
2017-03-17T00:21:04.938Z,0
2017-03-17T00:22:05.171Z,0
2017-03-17T00:23:05.406Z,0
2017-03-17T00:24:05.344Z,0
2017-03-17T00:25:04.984Z,0
2017-03-17T00:26:05.222Z,0
2017-03-17T00:27:04.858Z,0
2017-03-17T00:28:05.093Z,0
2017-03-17T00:29:05.032Z,0
2017-03-17T00:30:04.975Z,0
2017-03-17T00:31:04.911Z,0
2017-03-17T00:32:04.847Z,0
2017-03-17T00:33:04.785Z,0
2017-03-17T00:34:04.722Z,0
2017-03-17T00:35:04.661Z,0
2017-03-17T00:36:04.605Z,0
2017-03-17T00:37:04.235Z,0
2017-03-17T00:38:04.473Z,0
2017-03-17T00:39:04.413Z,0
2017-03-17T00:40:04.380Z,0
2017-03-17T00:41:04.286Z,0
2017-03-17T00:42:04.224Z,0
2017-03-17T00:43:03.863Z,0
2017-03-17T00:44:03.202Z,0
2017-03-17T00:45:04.187Z,0
2017-03-17T00:46:03.374Z,0
2017-03-17T00:47:03.613Z,0
2017-03-17T00:48:03.548Z,0
2017-03-17T00:49:03.788Z,0
2017-03-17T00:50:03.424Z,0
2017-03-17T00:51:03.662Z,0
2017-03-17T00:52:03.602Z,0
2017-03-17T00:53:03.538Z,0
2017-03-17T00:54:03.473Z,0
2017-03-17T00:55:03.412Z,0
2017-03-17T00:56:03.366Z,0
2017-03-17T00:57:03.296Z,0
2017-03-17T00:58:03.229Z,0
2017-03-17T00:59:03.169Z,0
2017-03-17T01:01:18.174Z,0
2017-03-17T01:02:17.810Z,0
2017-03-17T01:03:18.055Z,0
2017-03-17T01:04:17.692Z,0
2017-03-17T01:05:17.954Z,0
2017-03-17T01:06:17.864Z,0
2017-03-17T01:07:17.804Z,0
2017-03-17T01:08:17.736Z,0
2017-03-17T01:09:17.372Z,0
2017-03-17T01:10:17.610Z,0
2017-03-17T01:11:17.571Z,0
2017-03-17T01:12:17.485Z,0
2017-03-17T01:13:17.430Z,0
2017-03-17T01:14:17.362Z,0
2017-03-17T01:15:17.300Z,0
2017-03-17T01:16:17.237Z,0
2017-03-17T01:17:17.175Z,0
2017-03-17T01:18:17.111Z,0
2017-03-17T01:19:17.060Z,0
2017-03-17T01:20:16.996Z,0
2017-03-17T01:21:16.924Z,0
2017-03-17T01:22:16.872Z,0
2017-03-17T01:23:16.795Z,0
2017-03-17T01:24:16.736Z,0
2017-03-17T01:25:16.680Z,0
2017-03-17T01:26:16.613Z,0
2017-03-17T01:27:16.551Z,0
2017-03-17T01:28:16.517Z,0
2017-03-17T01:29:16.425Z,0
2017-03-17T01:30:16.064Z,0
2017-03-17T01:31:16.027Z,0
2017-03-17T01:32:16.237Z,0
2017-03-17T01:33:15.878Z,0
2017-03-17T01:34:15.813Z,0
2017-03-17T01:35:16.050Z,0
2017-03-17T01:36:15.989Z,0
2017-03-17T01:37:15.928Z,0
2017-03-17T01:38:15.865Z,0
2017-03-17T01:39:15.802Z,0
2017-03-17T01:40:15.739Z,0
2017-03-17T01:41:15.678Z,0
2017-03-17T01:42:15.862Z,0
2017-03-17T01:43:14.961Z,0
2017-03-17T01:44:15.488Z,0
2017-03-17T01:45:15.426Z,0
2017-03-17T01:46:15.365Z,0
2017-03-17T01:47:15.301Z,0
2017-03-17T01:48:14.946Z,0
2017-03-17T01:49:15.179Z,0
2017-03-17T01:50:15.117Z,0
2017-03-17T01:51:15.054Z,0
2017-03-17T01:52:14.689Z,0
2017-03-17T01:53:14.927Z,4
2017-03-17T01:54:14.866Z,4
2017-03-17T01:55:14.807Z,4
2017-03-17T01:56:14.739Z,4
2017-03-17T01:57:14.678Z,4
2017-03-17T01:58:14.319Z,4
2017-03-17T01:59:14.556Z,4
2017-03-17T02:00:14.491Z,4
2017-03-17T02:01:14.428Z,4
2017-03-17T02:02:14.066Z,4
2017-03-17T02:03:14.305Z,4
2017-03-17T02:04:13.941Z,4
2017-03-17T02:05:13.880Z,4
2017-03-17T02:06:13.816Z,4
2017-03-17T02:07:13.753Z,4
2017-03-17T02:08:13.998Z,4
2017-03-17T02:09:13.929Z,4
2017-03-17T02:10:13.565Z,4
2017-03-17T02:11:13.805Z,4
2017-03-17T02:12:13.743Z,4
2017-03-17T02:13:13.683Z,4
2017-03-17T02:14:13.618Z,4
2017-03-17T02:15:13.552Z,4
2017-03-17T02:16:13.488Z,4
2017-03-17T02:17:13.429Z,4
2017-03-17T02:18:13.467Z,4
2017-03-17T02:19:13.308Z,4
2017-03-17T02:20:12.942Z,4
2017-03-17T02:21:13.177Z,4
2017-03-17T02:22:13.117Z,4
2017-03-17T02:23:12.757Z,4
2017-03-17T02:24:12.692Z,4
2017-03-17T02:25:12.932Z,4
2017-03-17T02:26:12.566Z,4
2017-03-17T02:27:12.808Z,4
2017-03-17T02:28:12.443Z,4
2017-03-17T02:29:12.680Z,4
2017-03-17T02:30:12.622Z,4
2017-03-17T02:31:12.258Z,4
2017-03-17T02:32:12.492Z,4
2017-03-17T02:33:12.431Z,4
2017-03-17T02:34:12.067Z,4
2017-03-17T02:35:12.310Z,4
2017-03-17T02:36:11.943Z,4
2017-03-17T02:37:12.181Z,4
2017-03-17T02:38:11.821Z,4
2017-03-17T02:39:11.771Z,4
2017-03-17T02:40:11.699Z,4
2017-03-17T02:41:11.632Z,4
2017-03-17T02:42:11.570Z,4
2017-03-17T02:43:11.836Z,4
2017-03-17T02:44:11.746Z,4
2017-03-17T02:45:11.383Z,4
2017-03-17T02:46:11.319Z,4
2017-03-17T02:47:11.553Z,4
2017-03-17T02:48:11.489Z,4
2017-03-17T02:49:11.436Z,4
2017-03-17T02:50:11.071Z,4
2017-03-17T02:51:11.303Z,4
2017-03-17T02:52:11.240Z,4
2017-03-17T02:53:11.188Z,4
2017-03-17T02:54:11.126Z,4
2017-03-17T02:55:10.756Z,4
2017-03-17T02:56:10.692Z,4
2017-03-17T02:57:10.929Z,4
2017-03-17T02:58:10.867Z,4
2017-03-17T02:59:10.808Z,4
2017-03-17T03:00:10.766Z,4
2017-03-17T03:01:10.380Z,4
2017-03-17T03:02:10.318Z,4
2017-03-17T03:03:10.557Z,4
2017-03-17T03:04:10.500Z,4
2017-03-17T03:05:10.430Z,4
2017-03-17T03:06:10.369Z,4
2017-03-17T03:07:10.303Z,4
2017-03-17T03:08:09.940Z,4
2017-03-17T03:09:10.181Z,4
2017-03-17T03:10:09.817Z,4
2017-03-17T03:11:09.757Z,4
2017-03-17T03:12:09.393Z,4
2017-03-17T03:13:09.935Z,4
2017-03-17T03:14:09.866Z,4
2017-03-17T03:15:09.502Z,4
2017-03-17T03:16:09.745Z,4
2017-03-17T03:17:09.682Z,4
2017-03-17T03:18:09.614Z,4
2017-03-17T03:19:09.554Z,4
2017-03-17T03:20:08.891Z,4
2017-03-17T03:21:09.134Z,4
2017-03-17T03:22:09.063Z,4
2017-03-17T03:23:09.306Z,4
2017-03-17T03:24:08.941Z,4
2017-03-17T03:25:09.197Z,4
2017-03-17T03:26:08.817Z,4
2017-03-17T03:27:09.051Z,4
2017-03-17T03:28:08.990Z,4
2017-03-17T03:29:08.931Z,4
2017-03-17T03:30:08.568Z,4
2017-03-17T03:31:08.803Z,4
2017-03-17T03:32:08.439Z,4
2017-03-17T03:33:08.681Z,4
2017-03-17T03:34:08.620Z,4
2017-03-17T03:35:08.553Z,4
2017-03-17T03:36:08.188Z,4
2017-03-17T03:37:08.425Z,4
2017-03-17T03:38:08.068Z,4
2017-03-17T03:39:08.308Z,4
2017-03-17T03:40:08.196Z,4
2017-03-17T03:41:08.176Z,4
2017-03-17T03:42:07.820Z,4
2017-03-17T03:43:08.059Z,4
2017-03-17T03:44:07.697Z,4
2017-03-17T03:45:07.628Z,4
2017-03-17T03:46:07.563Z,4
2017-03-17T03:47:07.803Z,4
2017-03-17T03:48:07.468Z,4
2017-03-17T03:49:07.675Z,4
2017-03-17T03:50:07.610Z,4
2017-03-17T03:51:07.549Z,4
2017-03-17T03:52:07.187Z,4
2017-03-17T03:53:07.429Z,4
2017-03-17T03:54:07.361Z,4
2017-03-17T03:55:07.302Z,4
2017-03-17T03:56:07.237Z,4
2017-03-17T03:57:07.198Z,4
2017-03-17T03:58:07.114Z,4
2017-03-17T03:59:07.054Z,4
2017-03-17T04:00:06.988Z,4
2017-03-17T04:01:06.623Z,4
2017-03-17T04:02:06.863Z,4
2017-03-17T04:03:06.802Z,4
2017-03-17T04:04:06.740Z,4
2017-03-17T04:05:06.677Z,4
2017-03-17T04:06:06.639Z,4
2017-03-17T04:07:06.579Z,4
2017-03-17T04:08:06.491Z,0
2017-03-17T04:09:06.425Z,0
2017-03-17T04:10:06.362Z,0
2017-03-17T04:11:06.296Z,0
2017-03-17T04:12:06.235Z,0
2017-03-17T04:13:06.181Z,0
2017-03-17T04:14:06.108Z,0
2017-03-17T04:15:06.071Z,0
2017-03-17T04:16:05.989Z,0
2017-03-17T04:17:05.629Z,0
2017-03-17T04:18:05.863Z,0
2017-03-17T04:19:05.804Z,0
2017-03-17T04:20:05.736Z,0
2017-03-17T04:21:05.678Z,0
2017-03-17T04:22:05.308Z,0
2017-03-17T04:23:05.250Z,0
2017-03-17T04:24:05.494Z,0
2017-03-17T04:25:05.121Z,0
2017-03-17T04:26:05.357Z,0
2017-03-17T04:27:05.294Z,0
2017-03-17T04:28:05.239Z,0
2017-03-17T04:29:05.172Z,0
2017-03-17T04:30:05.110Z,0
2017-03-17T04:31:05.042Z,0
2017-03-17T04:32:04.995Z,0
2017-03-17T04:33:04.936Z,0
2017-03-17T04:34:04.857Z,0
2017-03-17T04:35:04.797Z,0
2017-03-17T04:36:04.729Z,0
2017-03-17T04:37:04.369Z,0
2017-03-17T04:38:04.610Z,0
2017-03-17T04:39:04.577Z,0
2017-03-17T04:40:04.189Z,0
2017-03-17T04:41:04.417Z,0
2017-03-17T04:42:04.362Z,0
2017-03-17T04:43:04.299Z,0
2017-03-17T04:44:04.233Z,0
2017-03-17T04:45:04.167Z,0
2017-03-17T04:46:04.105Z,0
2017-03-17T04:47:04.041Z,0
2017-03-17T04:48:03.978Z,0
2017-03-17T04:49:03.918Z,0
2017-03-17T04:50:03.558Z,0
2017-03-17T04:51:03.790Z,0
2017-03-17T04:52:03.732Z,0
2017-03-17T04:53:03.665Z,0
2017-03-17T04:54:03.601Z,0
2017-03-17T04:55:03.551Z,0
2017-03-17T04:56:03.477Z,0
2017-03-17T04:57:03.411Z,0
2017-03-17T04:58:03.049Z,0
2017-03-17T04:59:03.287Z,0
2017-03-17T05:00:03.226Z,0
2017-03-17T05:01:03.162Z,0
2017-03-17T05:02:03.119Z,0
2017-03-17T05:03:03.041Z,0
2017-03-17T05:04:02.978Z,0
2017-03-17T05:05:02.919Z,0
2017-03-17T05:06:02.554Z,0
2017-03-17T05:07:02.787Z,0
2017-03-17T05:08:02.726Z,0
2017-03-17T05:09:02.660Z,0
2017-03-17T05:10:02.612Z,0
2017-03-17T05:11:02.536Z,0
2017-03-17T05:12:02.481Z,0
2017-03-17T05:13:02.414Z,0
2017-03-17T05:14:02.345Z,0
2017-03-17T05:15:02.287Z,0
2017-03-17T05:16:02.233Z,0
2017-03-17T05:17:02.158Z,0
2017-03-17T05:18:02.104Z,4
2017-03-17T05:19:02.038Z,4
2017-03-17T05:20:01.681Z,4
2017-03-17T05:21:01.615Z,4
2017-03-17T05:22:01.847Z,4
2017-03-17T05:23:01.492Z,4
2017-03-17T05:24:01.724Z,4
2017-03-17T05:25:01.362Z,4
2017-03-17T05:26:01.597Z,4
2017-03-17T05:27:01.539Z,4
2017-03-17T05:28:01.476Z,4
2017-03-17T05:29:01.457Z,4
2017-03-17T05:30:01.348Z,4
2017-03-17T05:31:01.281Z,4
2017-03-17T05:32:01.218Z,4
2017-03-17T05:33:01.152Z,4
2017-03-17T05:34:01.097Z,4
2017-03-17T05:35:01.040Z,4
2017-03-17T05:36:00.975Z,4
2017-03-17T05:37:00.912Z,4
2017-03-17T05:38:00.846Z,4
2017-03-17T05:39:00.785Z,4
2017-03-17T05:40:00.725Z,4
2017-03-17T05:41:00.682Z,4
2017-03-17T05:42:00.593Z,4
2017-03-17T05:43:00.534Z,4
2017-03-17T05:44:00.476Z,4
2017-03-17T05:45:00.423Z,4
2017-03-17T05:46:00.062Z,4
2017-03-17T05:47:00.279Z,4
2017-03-17T05:48:00.219Z,4
2017-03-17T05:48:59.855Z,4
2017-03-17T05:49:59.799Z,4
2017-03-17T05:50:59.731Z,4
2017-03-17T05:51:59.973Z,8
2017-03-17T05:52:59.927Z,8
2017-03-17T05:53:59.846Z,8
2017-03-17T05:54:59.784Z,8
2017-03-17T05:55:59.712Z,8
2017-03-17T05:56:59.355Z,8
2017-03-17T05:57:59.595Z,8
2017-03-17T05:58:59.530Z,4
2017-03-17T05:59:59.465Z,4
2017-03-17T06:00:59.399Z,4
2017-03-17T06:01:59.039Z,8
2017-03-17T06:02:59.276Z,8
2017-03-17T06:03:59.217Z,8
2017-03-17T06:04:59.191Z,8
2017-03-17T06:05:59.088Z,8
2017-03-17T06:06:59.038Z,8
2017-03-17T06:07:58.968Z,8
2017-03-17T06:08:58.901Z,8
2017-03-17T06:09:58.847Z,8
2017-03-17T06:10:58.779Z,8
2017-03-17T06:11:58.710Z,8
2017-03-17T06:12:58.652Z,8
2017-03-17T06:13:58.590Z,12
2017-03-17T06:14:58.528Z,12
2017-03-17T06:15:58.161Z,8
2017-03-17T06:16:58.097Z,12
2017-03-17T06:17:58.039Z,12
2017-03-17T06:18:58.276Z,8
2017-03-17T06:19:57.910Z,12
2017-03-17T06:20:58.150Z,12
2017-03-17T06:21:58.087Z,8
2017-03-17T06:22:58.023Z,8
2017-03-17T06:23:57.962Z,12
2017-03-17T06:24:57.900Z,12
2017-03-17T06:25:57.841Z,12
2017-03-17T06:26:57.470Z,8
2017-03-17T06:27:57.411Z,12
2017-03-17T06:28:57.643Z,12
2017-03-17T06:29:57.592Z,12
2017-03-17T06:30:57.553Z,12
2017-03-17T06:31:57.454Z,12
2017-03-17T06:32:57.398Z,12
2017-03-17T06:33:57.331Z,12
2017-03-17T06:34:57.275Z,8
2017-03-17T06:35:57.205Z,8
2017-03-17T06:36:57.146Z,8
2017-03-17T06:37:57.088Z,8
2017-03-17T06:38:56.748Z,8
2017-03-17T06:39:56.954Z,8
2017-03-17T06:40:56.890Z,8
2017-03-17T06:41:56.829Z,8
2017-03-17T06:42:56.784Z,8
2017-03-17T06:43:56.706Z,8
2017-03-17T06:44:56.650Z,8
2017-03-17T06:45:56.579Z,8
2017-03-17T06:46:56.519Z,8
2017-03-17T06:47:56.458Z,8
2017-03-17T06:48:56.394Z,8
2017-03-17T06:49:56.332Z,8
2017-03-17T06:50:55.964Z,8
2017-03-17T06:51:56.202Z,8
2017-03-17T06:52:56.139Z,8
2017-03-17T06:53:56.081Z,8
2017-03-17T06:54:56.019Z,8
2017-03-17T06:55:55.948Z,8
2017-03-17T06:56:55.592Z,4
2017-03-17T06:57:55.832Z,8
2017-03-17T06:58:55.763Z,8
2017-03-17T06:59:55.702Z,8
2017-03-17T07:00:55.347Z,8
2017-03-17T07:01:55.574Z,8
2017-03-17T07:02:55.519Z,8
2017-03-17T07:03:55.453Z,8
2017-03-17T07:04:55.393Z,8
2017-03-17T07:05:55.323Z,8
2017-03-17T07:06:54.961Z,12
2017-03-17T07:07:55.207Z,8
2017-03-17T07:08:54.838Z,8
2017-03-17T07:09:55.076Z,8
2017-03-17T07:10:55.009Z,8
2017-03-17T07:11:54.651Z,8
2017-03-17T07:12:54.586Z,8
2017-03-17T07:13:54.823Z,8
2017-03-17T07:14:54.766Z,8
2017-03-17T07:15:54.698Z,8
2017-03-17T07:16:54.634Z,8
2017-03-17T07:17:54.273Z,4
2017-03-17T07:18:54.518Z,8
2017-03-17T07:19:54.451Z,8
2017-03-17T07:20:54.382Z,4
2017-03-17T07:21:54.321Z,4
2017-03-17T07:22:53.964Z,4
2017-03-17T07:23:54.203Z,4
2017-03-17T07:24:54.136Z,4
2017-03-17T07:25:54.071Z,4
2017-03-17T07:26:54.010Z,4
2017-03-17T07:27:53.950Z,4
2017-03-17T07:28:53.585Z,4
2017-03-17T07:29:53.821Z,4
2017-03-17T07:30:53.752Z,4
2017-03-17T07:31:53.691Z,8
2017-03-17T07:32:53.637Z,4
2017-03-17T07:33:53.576Z,4
2017-03-17T07:34:53.511Z,4
2017-03-17T07:35:53.447Z,8
2017-03-17T07:36:53.381Z,8
2017-03-17T07:37:53.327Z,4
2017-03-17T07:38:52.960Z,8
2017-03-17T07:39:53.190Z,4
2017-03-17T07:40:53.131Z,8
2017-03-17T07:41:52.766Z,8
2017-03-17T07:42:53.011Z,8
2017-03-17T07:43:52.943Z,12
2017-03-17T07:44:52.882Z,8
2017-03-17T07:45:52.820Z,8
2017-03-17T07:46:52.755Z,8
2017-03-17T07:47:52.396Z,8
2017-03-17T07:48:52.631Z,12
2017-03-17T07:49:52.575Z,8
2017-03-17T07:50:52.653Z,8
2017-03-17T07:51:52.467Z,8
2017-03-17T07:52:52.226Z,8
2017-03-17T07:53:52.431Z,8
2017-03-17T07:54:52.079Z,8
2017-03-17T07:55:52.589Z,12
2017-03-17T07:56:51.812Z,12
2017-03-17T07:57:51.770Z,12
2017-03-17T07:58:52.004Z,16
2017-03-17T07:59:51.640Z,16
2017-03-17T08:00:51.878Z,16
2017-03-17T08:01:51.812Z,20
2017-03-17T08:02:51.756Z,16
2017-03-17T08:03:51.693Z,16
2017-03-17T08:04:51.331Z,16
2017-03-17T08:05:51.267Z,16
2017-03-17T08:06:51.501Z,20
2017-03-17T08:07:51.145Z,16
2017-03-17T08:08:51.378Z,20
2017-03-17T08:09:51.318Z,20
2017-03-17T08:10:50.952Z,20
2017-03-17T08:11:51.252Z,24
2017-03-17T08:12:51.132Z,24
2017-03-17T08:13:50.767Z,28
2017-03-17T08:14:51.002Z,32
2017-03-17T08:15:50.933Z,32
2017-03-17T08:16:50.873Z,36
2017-03-17T08:17:50.812Z,36
2017-03-17T08:18:50.755Z,32
2017-03-17T08:19:50.683Z,32
2017-03-17T08:20:50.624Z,32
2017-03-17T08:21:50.556Z,32
2017-03-17T08:22:50.555Z,32
2017-03-17T08:23:50.433Z,32
2017-03-17T08:24:50.068Z,32
2017-03-17T08:25:50.306Z,32
2017-03-17T08:26:50.265Z,32
2017-03-17T08:27:50.183Z,32
2017-03-17T08:28:50.119Z,32
2017-03-17T08:29:50.056Z,36
2017-03-17T08:30:49.689Z,36
2017-03-17T08:31:49.933Z,32
2017-03-17T08:32:49.862Z,36
2017-03-17T08:33:49.807Z,36
2017-03-17T08:34:49.734Z,36
2017-03-17T08:35:49.677Z,44
2017-03-17T08:36:49.621Z,44
2017-03-17T08:37:49.547Z,52
2017-03-17T08:38:49.491Z,56
2017-03-17T08:39:49.420Z,56
2017-03-17T08:40:49.350Z,40
2017-03-17T08:41:49.307Z,40
2017-03-17T08:42:49.239Z,40
2017-03-17T08:43:49.170Z,44
2017-03-17T08:44:49.101Z,52
2017-03-17T08:45:49.035Z,52
2017-03-17T08:46:48.686Z,52
2017-03-17T08:47:48.911Z,48
2017-03-17T08:48:48.550Z,40
2017-03-17T08:49:48.487Z,36
2017-03-17T08:50:48.719Z,36
2017-03-17T08:51:48.657Z,36
2017-03-17T08:52:48.329Z,44
2017-03-17T08:53:48.238Z,44
2017-03-17T08:54:48.197Z,48
2017-03-17T08:55:48.104Z,44
2017-03-17T08:56:47.748Z,44
2017-03-17T08:57:48.285Z,44
2017-03-17T08:58:48.217Z,40
2017-03-17T08:59:48.148Z,44
2017-03-17T09:00:48.086Z,40
2017-03-17T09:01:48.025Z,44
2017-03-17T09:02:47.967Z,72
2017-03-17T09:03:47.899Z,88
2017-03-17T09:04:47.544Z,92
2017-03-17T09:05:47.979Z,96
2017-03-17T09:06:47.703Z,100
2017-03-17T09:07:47.652Z,100
2017-03-17T09:08:47.584Z,96
2017-03-17T09:09:47.520Z,96
2017-03-17T09:10:47.451Z,96
2017-03-17T09:11:47.469Z,96
2017-03-17T09:12:47.349Z,92
2017-03-17T09:13:47.264Z,96
2017-03-17T09:14:47.211Z,96
2017-03-17T09:15:47.165Z,92
2017-03-17T09:16:47.074Z,96
2017-03-17T09:17:47.018Z,96
2017-03-17T09:18:46.649Z,96
2017-03-17T09:19:46.895Z,96
2017-03-17T09:20:46.726Z,96
2017-03-17T09:21:46.479Z,92
2017-03-17T09:22:46.703Z,92
2017-03-17T09:23:46.639Z,88
2017-03-17T09:24:46.573Z,88
2017-03-17T09:25:46.508Z,88
2017-03-17T09:26:46.146Z,84
2017-03-17T09:27:46.399Z,84
2017-03-17T09:28:46.320Z,84
2017-03-17T09:29:46.255Z,84
2017-03-17T09:30:46.198Z,88
2017-03-17T09:31:45.833Z,88
2017-03-17T09:32:46.087Z,88
2017-03-17T09:33:46.013Z,84
2017-03-17T09:34:45.647Z,88
2017-03-17T09:35:45.587Z,88
2017-03-17T09:36:45.823Z,36
2017-03-17T09:37:45.770Z,36
2017-03-17T09:38:45.730Z,36
2017-03-17T09:39:45.636Z,32
2017-03-17T09:40:45.571Z,28
2017-03-17T09:41:45.508Z,28
2017-03-17T09:42:45.459Z,24
2017-03-17T09:43:45.384Z,24
2017-03-17T09:44:45.328Z,24
2017-03-17T09:45:45.259Z,20
2017-03-17T09:46:45.199Z,24
2017-03-17T09:47:45.138Z,20
2017-03-17T09:48:45.066Z,20
2017-03-17T09:49:45.007Z,20
2017-03-17T09:50:44.947Z,20
2017-03-17T09:51:44.940Z,24
2017-03-17T09:52:44.826Z,20
2017-03-17T09:53:44.758Z,16
2017-03-17T09:54:44.695Z,16
2017-03-17T09:55:44.640Z,20
2017-03-17T09:56:44.568Z,20
2017-03-17T09:57:44.561Z,24
2017-03-17T09:58:44.446Z,24
2017-03-17T09:59:44.385Z,20
2017-03-17T10:00:44.468Z,20
2017-03-17T10:01:44.257Z,16
2017-03-17T10:02:44.197Z,16
2017-03-17T10:03:44.135Z,16
2017-03-17T10:04:44.076Z,16
2017-03-17T10:05:44.157Z,16
2017-03-17T10:06:43.646Z,12
2017-03-17T10:07:43.589Z,12
2017-03-17T10:08:43.826Z,12
2017-03-17T10:09:43.161Z,8
2017-03-17T10:10:43.709Z,12
2017-03-17T10:11:43.538Z,12
2017-03-17T10:12:43.605Z,12
2017-03-17T10:13:43.526Z,12
2017-03-17T10:14:43.446Z,12
2017-03-17T10:15:43.113Z,12
2017-03-17T10:16:43.330Z,12
2017-03-17T10:17:43.270Z,12
2017-03-17T10:18:42.913Z,16
2017-03-17T10:19:42.538Z,20
2017-03-17T10:20:42.775Z,24
2017-03-17T10:21:43.012Z,24
2017-03-17T10:22:42.955Z,24
2017-03-17T10:23:42.589Z,24
2017-03-17T10:24:42.834Z,20
2017-03-17T10:25:42.766Z,16
2017-03-17T10:26:42.399Z,16
2017-03-17T10:27:42.342Z,20
2017-03-17T10:28:42.579Z,16
2017-03-17T10:29:42.519Z,60
2017-03-17T10:30:42.460Z,72
2017-03-17T10:31:42.423Z,76
2017-03-17T10:32:41.731Z,76
2017-03-17T10:33:42.283Z,76
2017-03-17T10:34:42.205Z,76
2017-03-17T10:35:42.165Z,76
2017-03-17T10:36:42.082Z,76
2017-03-17T10:37:42.036Z,76
2017-03-17T10:38:41.972Z,76
2017-03-17T10:39:41.895Z,76
2017-03-17T10:40:41.832Z,80
2017-03-17T10:41:41.770Z,76
2017-03-17T10:42:41.405Z,76
2017-03-17T10:43:41.648Z,76
2017-03-17T10:44:41.581Z,76
2017-03-17T10:45:41.523Z,76
2017-03-17T10:46:41.489Z,76
2017-03-17T10:47:41.399Z,72
2017-03-17T10:48:41.045Z,76
2017-03-17T10:49:41.271Z,76
2017-03-17T10:50:41.462Z,72
2017-03-17T10:51:40.854Z,72
2017-03-17T10:52:40.792Z,72
2017-03-17T10:53:41.032Z,68
2017-03-17T10:54:40.965Z,68
2017-03-17T10:55:40.899Z,72
2017-03-17T10:56:40.837Z,72
2017-03-17T10:57:40.777Z,72
2017-03-17T10:58:40.724Z,72
2017-03-17T10:59:40.358Z,76
2017-03-17T11:00:40.594Z,76
2017-03-17T11:01:40.553Z,76
2017-03-17T11:02:40.172Z,76
2017-03-17T11:03:40.124Z,80
2017-03-17T11:04:40.045Z,76
2017-03-17T11:05:40.357Z,80
2017-03-17T11:06:39.727Z,76
2017-03-17T11:07:40.172Z,80
2017-03-17T11:08:39.954Z,84
2017-03-17T11:09:39.962Z,80
2017-03-17T11:10:40.240Z,76
2017-03-17T11:11:40.114Z,76
2017-03-17T11:12:39.856Z,76
2017-03-17T11:13:39.490Z,72
2017-03-17T11:14:39.428Z,76
2017-03-17T11:15:39.361Z,76
2017-03-17T11:16:39.608Z,76
2017-03-17T11:17:38.949Z,80
2017-03-17T11:18:38.879Z,80
2017-03-17T11:19:38.816Z,80
2017-03-17T11:20:39.052Z,80
2017-03-17T11:21:39.292Z,84
2017-03-17T11:22:38.936Z,84
2017-03-17T11:23:39.183Z,88
2017-03-17T11:24:39.111Z,84
2017-03-17T11:25:39.048Z,84
2017-03-17T11:26:38.989Z,88
2017-03-17T11:27:38.630Z,36
2017-03-17T11:28:38.865Z,36
2017-03-17T11:29:38.799Z,40
2017-03-17T11:30:38.739Z,44
2017-03-17T11:31:38.679Z,44
2017-03-17T11:32:38.621Z,40
2017-03-17T11:33:37.953Z,36
2017-03-17T11:34:38.495Z,44
2017-03-17T11:35:38.458Z,44
2017-03-17T11:36:38.368Z,40
2017-03-17T11:37:38.309Z,36
2017-03-17T11:38:38.252Z,32
2017-03-17T11:39:38.188Z,36
2017-03-17T11:40:37.529Z,40
2017-03-17T11:41:37.762Z,40
2017-03-17T11:42:38.001Z,40
2017-03-17T11:43:37.969Z,40
2017-03-17T11:44:37.919Z,44
2017-03-17T11:45:37.817Z,48
2017-03-17T11:46:37.195Z,48
2017-03-17T11:47:37.698Z,52
2017-03-17T11:48:37.640Z,48
2017-03-17T11:49:37.274Z,40
2017-03-17T11:50:37.508Z,40
2017-03-17T11:51:37.148Z,36
2017-03-17T11:52:36.787Z,32
2017-03-17T11:53:37.325Z,36
2017-03-17T11:54:36.659Z,32
2017-03-17T11:55:36.602Z,36
2017-03-17T11:56:36.543Z,36
2017-03-17T11:57:36.913Z,36
2017-03-17T11:58:36.947Z,36
2017-03-17T11:59:36.968Z,36
2017-03-17T12:00:36.324Z,36
2017-03-17T12:01:36.828Z,32
2017-03-17T12:02:36.473Z,32
2017-03-17T12:03:36.733Z,32
2017-03-17T12:04:36.645Z,32
2017-03-17T12:05:36.582Z,36
2017-03-17T12:06:36.529Z,32
2017-03-17T12:07:36.458Z,28
2017-03-17T12:08:36.398Z,24
2017-03-17T12:09:36.034Z,16
2017-03-17T12:10:36.273Z,12
2017-03-17T12:11:36.212Z,16
2017-03-17T12:12:36.153Z,20
2017-03-17T12:13:35.808Z,16
2017-03-17T12:14:35.726Z,16
2017-03-17T12:15:35.667Z,20
2017-03-17T12:16:35.645Z,20
2017-03-17T12:17:35.839Z,28
2017-03-17T12:18:35.783Z,32
2017-03-17T12:19:35.118Z,32
2017-03-17T12:20:35.661Z,36
2017-03-17T12:21:35.337Z,36
2017-03-17T12:22:35.734Z,36
2017-03-17T12:23:35.483Z,32
2017-03-17T12:24:35.129Z,36
2017-03-17T12:25:35.346Z,36
2017-03-17T12:26:34.988Z,32
2017-03-17T12:27:35.232Z,32
2017-03-17T12:28:34.861Z,36
2017-03-17T12:29:35.099Z,36
2017-03-17T12:30:35.225Z,32
2017-03-17T12:31:34.377Z,32
2017-03-17T12:32:34.638Z,32
2017-03-17T12:33:34.853Z,36
2017-03-17T12:34:34.789Z,36
2017-03-17T12:35:34.581Z,36
2017-03-17T12:36:34.370Z,40
2017-03-17T12:37:34.322Z,48
2017-03-17T12:38:34.549Z,44
2017-03-17T12:39:34.191Z,40
2017-03-17T12:40:34.427Z,40
2017-03-17T12:41:34.060Z,40
2017-03-17T12:42:34.006Z,36
2017-03-17T12:43:34.232Z,36
2017-03-17T12:44:33.876Z,32
2017-03-17T12:45:34.111Z,32
2017-03-17T12:46:34.048Z,32
2017-03-17T12:47:33.986Z,32
2017-03-17T12:48:33.926Z,36
2017-03-17T12:49:33.873Z,40
2017-03-17T12:50:33.799Z,40
2017-03-17T12:51:33.748Z,44
2017-03-17T12:52:33.684Z,40
2017-03-17T12:53:33.620Z,40
2017-03-17T12:54:33.556Z,40
2017-03-17T12:55:33.487Z,36
2017-03-17T12:56:33.467Z,36
2017-03-17T12:57:32.767Z,36
2017-03-17T12:58:33.315Z,36
2017-03-17T12:59:33.261Z,36
2017-03-17T13:00:33.327Z,36
2017-03-17T13:01:33.330Z,32
2017-03-17T13:02:33.062Z,36
2017-03-17T13:03:33.022Z,32
2017-03-17T13:04:32.705Z,32
2017-03-17T13:05:32.930Z,32
2017-03-17T13:06:32.513Z,32
2017-03-17T13:07:32.750Z,32
2017-03-17T13:08:32.688Z,32
2017-03-17T13:09:32.630Z,32
2017-03-17T13:10:32.565Z,36
2017-03-17T13:11:32.304Z,36
2017-03-17T13:12:32.441Z,36
2017-03-17T13:13:32.381Z,36
2017-03-17T13:14:32.316Z,36
2017-03-17T13:15:32.255Z,32
2017-03-17T13:16:32.191Z,36
2017-03-17T13:17:32.137Z,40
2017-03-17T13:18:32.070Z,36
2017-03-17T13:19:32.008Z,36
2017-03-17T13:20:31.944Z,36
2017-03-17T13:21:31.885Z,36
2017-03-17T13:22:31.828Z,32
2017-03-17T13:23:31.767Z,36
2017-03-17T13:24:31.399Z,36
2017-03-17T13:25:31.636Z,32
2017-03-17T13:26:31.576Z,32
2017-03-17T13:27:31.215Z,32
2017-03-17T13:28:31.460Z,36
2017-03-17T13:29:31.392Z,36
2017-03-17T13:30:31.329Z,32
2017-03-17T13:31:31.265Z,32
2017-03-17T13:32:31.202Z,32
2017-03-17T13:33:31.154Z,80
2017-03-17T13:34:30.810Z,84
2017-03-17T13:35:31.019Z,84
2017-03-17T13:36:30.960Z,84
2017-03-17T13:37:30.896Z,84
2017-03-17T13:38:30.839Z,84
2017-03-17T13:39:30.781Z,84
2017-03-17T13:40:30.719Z,84
2017-03-17T13:41:30.645Z,80
2017-03-17T13:42:30.587Z,80
2017-03-17T13:43:30.568Z,76
2017-03-17T13:44:30.169Z,80
2017-03-17T13:45:30.401Z,80
2017-03-17T13:46:30.343Z,76
2017-03-17T13:47:30.280Z,76
2017-03-17T13:48:30.223Z,76
2017-03-17T13:49:30.165Z,72
2017-03-17T13:50:30.093Z,72
2017-03-17T13:51:30.032Z,72
2017-03-17T13:52:29.972Z,72
2017-03-17T13:53:29.916Z,72
2017-03-17T13:54:29.850Z,76
2017-03-17T13:55:29.783Z,72
2017-03-17T13:56:29.721Z,72
2017-03-17T13:57:29.685Z,72
2017-03-17T13:58:29.602Z,76
2017-03-17T13:59:29.245Z,72
2017-03-17T14:00:29.482Z,76
2017-03-17T14:01:29.620Z,76
2017-03-17T14:02:29.355Z,76
2017-03-17T14:03:29.297Z,72
2017-03-17T14:04:29.233Z,76
2017-03-17T14:05:29.184Z,72
2017-03-17T14:06:29.125Z,72
2017-03-17T14:07:28.797Z,72
2017-03-17T14:08:29.339Z,76
2017-03-17T14:09:28.925Z,76
2017-03-17T14:10:28.863Z,76
2017-03-17T14:11:28.797Z,72
2017-03-17T14:12:28.740Z,76
2017-03-17T14:13:28.388Z,72
2017-03-17T14:14:28.617Z,72
2017-03-17T14:15:28.552Z,72
2017-03-17T14:16:28.497Z,72
2017-03-17T14:17:28.429Z,72
2017-03-17T14:18:28.405Z,76
2017-03-17T14:19:28.315Z,72
2017-03-17T14:20:28.243Z,72
2017-03-17T14:21:28.189Z,72
2017-03-17T14:22:28.128Z,76
2017-03-17T14:23:27.765Z,72
2017-03-17T14:24:27.702Z,72
2017-03-17T14:25:27.648Z,72
2017-03-17T14:26:27.879Z,72
2017-03-17T14:27:27.518Z,72
2017-03-17T14:28:27.789Z,72
2017-03-17T14:29:27.698Z,72
2017-03-17T14:30:27.630Z,76
2017-03-17T14:31:27.574Z,76